Time;durP1;ratioP1;P1;durP2;ratioP2;P2;SDS_P1;SDS_P2;PMS_P1;PMS_P2;Temp;Humidity;BMP_temperature;BMP_pressure;BME280_temperature;BME280_humidity;BME280_pressure;Samples;Min_cycle;Max_cycle;Signal;HPM_P1;HPM_P2
2021/05/20 00:01:05;;;;;;;20.57;14.90;;;11.50;99.90;;;;;;5064695;28;20698;-61
2021/05/20 00:03:31;;;;;;;22.93;15.53;;;11.80;99.90;;;;;;5046992;28;20184;-60
2021/05/20 00:05:57;;;;;;;22.20;15.27;;;11.80;99.90;;;;;;5062349;28;20161;-61
2021/05/20 00:08:23;;;;;;;21.60;14.73;;;12.00;99.90;;;;;;5065132;28;20183;-60
2021/05/20 00:10:48;;;;;;;20.63;15.73;;;12.00;99.90;;;;;;5064834;28;20299;-60
2021/05/20 00:13:14;;;;;;;24.60;16.53;;;11.70;99.90;;;;;;5064768;28;20196;-61
2021/05/20 00:15:40;;;;;;;22.60;15.13;;;11.50;99.90;;;;;;5062132;28;20184;-61
2021/05/20 00:18:06;;;;;;;24.73;17.03;;;11.20;99.90;;;;;;5064876;28;20561;-61
2021/05/20 00:20:32;;;;;;;25.87;16.97;;;11.10;99.90;;;;;;5064844;28;20206;-61
2021/05/20 00:22:57;;;;;;;26.73;17.27;;;11.10;99.90;;;;;;5046907;28;20168;-61
2021/05/20 00:25:23;;;;;;;25.23;17.70;;;11.50;99.90;;;;;;5062267;28;20164;-61
2021/05/20 00:27:49;;;;;;;23.50;16.90;;;11.60;99.90;;;;;;5067999;28;20157;-60
2021/05/20 00:30:15;;;;;;;26.00;17.67;;;11.60;99.90;;;;;;5068065;28;20165;-61
2021/05/20 00:32:40;;;;;;;25.77;18.20;;;11.50;99.90;;;;;;5068179;28;20185;-60
2021/05/20 00:35:07;;;;;;;29.13;18.83;;;11.40;99.90;;;;;;5065591;28;20203;-61
2021/05/20 00:37:33;;;;;;;31.93;18.20;;;11.30;99.90;;;;;;5068299;28;20167;-61
2021/05/20 00:39:58;;;;;;;29.83;18.97;;;11.10;99.90;;;;;;5050436;28;20164;-61
2021/05/20 00:42:24;;;;;;;26.37;17.87;;;10.80;99.90;;;;;;5068112;28;20161;-61
2021/05/20 00:45:01;;;;;;;29.37;18.10;;;10.60;99.90;;;;;;5065414;28;20180;-61
2021/05/20 00:47:32;;;;;;;24.33;19.23;;;10.70;99.90;;;;;;5068269;28;20161;-61
2021/05/20 00:50:06;;;;;;;27.03;18.70;;;10.60;99.90;;;;;;5067885;28;20161;-60
2021/05/20 00:52:32;;;;;;;27.63;19.97;;;10.60;99.90;;;;;;5067630;28;20195;-61
2021/05/20 00:54:59;;;;;;;29.47;19.07;;;10.50;99.90;;;;;;5064908;28;20165;-61
2021/05/20 00:57:26;;;;;;;31.97;19.40;;;10.60;99.90;;;;;;5067844;28;20168;-60
2021/05/20 00:59:52;;;;;;;29.20;20.10;;;10.80;99.90;;;;;;5067615;28;20168;-61
2021/05/20 01:02:20;;;;;;;29.27;19.53;;;10.70;99.90;;;;;;5067302;28;20184;-61
2021/05/20 01:04:46;;;;;;;29.43;19.00;;;10.70;99.90;;;;;;5065070;28;20169;-60
2021/05/20 01:07:14;;;;;;;27.03;18.87;;;10.70;99.90;;;;;;5067549;28;20176;-60
2021/05/20 01:09:39;;;;;;;35.47;20.70;;;10.80;99.90;;;;;;5067748;28;20176;-61
2021/05/20 01:12:10;;;;;;;28.47;20.30;;;11.00;99.90;;;;;;5067151;28;20268;-60
2021/05/20 01:14:42;;;;;;;29.83;20.93;;;11.10;99.90;;;;;;5065102;28;20391;-60
2021/05/20 01:17:07;;;;;;;27.63;20.60;;;11.00;99.90;;;;;;5067194;28;20180;-61
2021/05/20 01:19:37;;;;;;;28.70;21.50;;;11.00;99.90;;;;;;5049591;28;20168;-61
2021/05/20 01:22:04;;;;;;;30.00;19.87;;;11.00;99.90;;;;;;5067317;28;20176;-61
2021/05/20 01:24:30;;;;;;;29.03;20.30;;;10.90;99.90;;;;;;5064872;28;20230;-61
2021/05/20 01:26:56;;;;;;;34.30;20.60;;;10.70;99.90;;;;;;5049500;28;20205;-61
2021/05/20 01:29:21;;;;;;;30.07;20.57;;;10.70;99.90;;;;;;5067261;28;20160;-61
2021/05/20 01:31:48;;;;;;;26.87;18.97;;;10.70;99.90;;;;;;5066841;28;20189;-61
2021/05/20 01:34:13;;;;;;;23.13;18.13;;;10.70;99.90;;;;;;5065332;28;20199;-61
2021/05/20 01:36:39;;;;;;;30.27;18.97;;;10.80;99.90;;;;;;5066534;28;20165;-61
2021/05/20 01:39:05;;;;;;;26.67;18.73;;;10.60;99.90;;;;;;5066247;28;20186;-61
2021/05/20 01:41:31;;;;;;;26.00;18.23;;;10.50;99.90;;;;;;5067155;28;20512;-61
2021/05/20 01:43:57;;;;;;;25.37;17.53;;;10.50;99.90;;;;;;5066934;28;20594;-61
2021/05/20 01:46:24;;;;;;;21.47;17.40;;;10.50;99.90;;;;;;5064091;28;20176;-60
2021/05/20 01:48:52;;;;;;;25.60;16.73;;;10.40;99.90;;;;;;5066995;28;20160;-61
2021/05/20 01:51:20;;;;;;;24.50;16.50;;;10.40;99.90;;;;;;5066693;28;20188;-61
2021/05/20 01:53:55;;;;;;;24.03;17.13;;;10.40;99.90;;;;;;5066822;28;20353;-61
2021/05/20 01:56:21;;;;;;;20.40;16.83;;;10.30;99.90;;;;;;5064183;28;20240;-61
2021/05/20 01:58:48;;;;;;;21.50;17.50;;;10.30;99.90;;;;;;5066788;28;20161;-60
2021/05/20 02:01:14;;;;;;;21.87;18.17;;;10.40;99.90;;;;;;5066145;28;20236;-61
2021/05/20 02:03:40;;;;;;;25.10;18.43;;;10.40;99.90;;;;;;5048800;28;20192;-61
2021/05/20 02:06:07;;;;;;;24.83;18.40;;;10.60;99.90;;;;;;5064091;28;20187;-60
2021/05/20 02:08:35;;;;;;;24.73;19.83;;;10.80;99.90;;;;;;5066404;28;20220;-61
2021/05/20 02:11:02;;;;;;;28.23;19.53;;;10.70;99.90;;;;;;5066269;28;20303;-61
2021/05/20 02:13:28;;;;;;;23.27;18.43;;;10.50;99.90;;;;;;5066299;28;20240;-61
2021/05/20 02:15:54;;;;;;;24.43;19.97;;;10.50;99.90;;;;;;5063380;28;20168;-61
2021/05/20 02:18:20;;;;;;;25.80;19.90;;;10.40;99.90;;;;;;5066308;28;20165;-61
2021/05/20 02:20:46;;;;;;;24.33;19.23;;;10.40;99.90;;;;;;5066309;28;20186;-61
2021/05/20 02:23:16;;;;;;;26.47;19.40;;;10.30;99.90;;;;;;5066088;28;20255;-60
2021/05/20 02:25:42;;;;;;;29.33;18.87;;;10.20;99.90;;;;;;5063695;28;20188;-61
2021/05/20 02:28:08;;;;;;;23.63;19.63;;;10.10;99.90;;;;;;5066051;28;20224;-60
2021/05/20 02:30:34;;;;;;;27.60;20.50;;;10.20;99.90;;;;;;5066172;28;20183;-60
2021/05/20 02:33:00;;;;;;;31.00;21.50;;;10.10;99.90;;;;;;5065798;28;20212;-61
2021/05/20 02:35:26;;;;;;;31.27;23.07;;;10.10;99.90;;;;;;5063579;28;20189;-61
2021/05/20 02:37:52;;;;;;;32.00;22.67;;;10.00;99.90;;;;;;5066057;28;20157;-61
2021/05/20 02:40:18;;;;;;;30.87;22.93;;;10.00;99.90;;;;;;5066175;28;20165;-60
2021/05/20 02:42:45;;;;;;;32.97;24.70;;;10.10;99.90;;;;;;5065899;28;20192;-60
2021/05/20 02:45:20;;;;;;;36.63;25.93;;;10.30;99.90;;;;;;5062809;28;20169;-60
2021/05/20 02:47:47;;;;;;;41.77;27.57;;;10.20;99.90;;;;;;5065924;28;20287;-60
2021/05/20 02:50:15;;;;;;;37.43;27.80;;;10.40;99.90;;;;;;5065556;28;20188;-60
2021/05/20 02:52:44;;;;;;;37.60;26.53;;;10.20;99.90;;;;;;5065458;28;20269;-60
2021/05/20 02:55:15;;;;;;;35.90;26.63;;;10.00;99.90;;;;;;5063177;28;20157;-60
2021/05/20 02:57:45;;;;;;;39.13;26.43;;;9.90;99.90;;;;;;5047596;28;20175;-60
2021/05/20 03:00:12;;;;;;;41.17;29.10;;;9.90;99.90;;;;;;5065375;28;20180;-60
2021/05/20 03:02:38;;;;;;;37.87;27.57;;;9.80;99.90;;;;;;5065521;28;20187;-60
2021/05/20 03:05:06;;;;;;;42.03;27.93;;;9.80;99.90;;;;;;5063222;28;20157;-61
2021/05/20 03:07:32;;;;;;;47.33;29.10;;;10.00;99.90;;;;;;5065664;28;20169;-60
2021/05/20 03:09:57;;;;;;;41.80;29.23;;;9.90;99.90;;;;;;5065564;28;20232;-60
2021/05/20 03:12:23;;;;;;;42.87;30.57;;;9.70;99.90;;;;;;5065600;28;20259;-60
2021/05/20 03:14:49;;;;;;;43.53;30.67;;;9.70;99.90;;;;;;5063016;28;20172;-60
2021/05/20 03:17:15;;;;;;;41.50;30.03;;;9.80;99.90;;;;;;5065234;28;20200;-61
2021/05/20 03:19:40;;;;;;;43.33;30.63;;;9.70;99.90;;;;;;5065588;28;20161;-60
2021/05/20 03:22:07;;;;;;;40.33;31.23;;;9.60;99.90;;;;;;5065347;28;20168;-60
2021/05/20 03:24:34;;;;;;;44.03;30.67;;;9.60;99.90;;;;;;5062870;28;20390;-61
2021/05/20 03:27:00;;;;;;;40.17;30.47;;;9.60;99.90;;;;;;5047333;28;20172;-61
2021/05/20 03:29:26;;;;;;;41.63;29.73;;;9.50;99.90;;;;;;5065545;28;20165;-61
2021/05/20 03:31:51;;;;;;;47.87;30.23;;;9.40;99.90;;;;;;5064956;28;20192;-60
2021/05/20 03:34:17;;;;;;;42.43;29.60;;;9.40;99.90;;;;;;5063075;28;20231;-61
2021/05/20 03:36:43;;;;;;;38.90;29.30;;;9.40;99.90;;;;;;5064943;28;20168;-60
2021/05/20 03:39:08;;;;;;;43.80;29.67;;;9.50;99.90;;;;;;5065182;28;20161;-60
2021/05/20 03:41:34;;;;;;;43.97;28.40;;;9.40;99.90;;;;;;5065353;28;20161;-60
2021/05/20 03:44:00;;;;;;;40.97;28.03;;;9.20;99.90;;;;;;5046867;28;20639;-61
2021/05/20 03:46:25;;;;;;;37.03;27.90;;;9.20;99.90;;;;;;5062906;28;20176;-60
2021/05/20 03:48:51;;;;;;;42.13;27.73;;;9.30;99.90;;;;;;5065406;28;20175;-61
2021/05/20 03:51:17;;;;;;;39.17;27.97;;;9.20;99.90;;;;;;5065031;28;20292;-60
2021/05/20 03:53:42;;;;;;;43.57;27.33;;;9.20;99.90;;;;;;5065122;28;20168;-60
2021/05/20 03:56:08;;;;;;;36.37;27.70;;;9.30;99.90;;;;;;5062428;28;20184;-61
2021/05/20 03:58:34;;;;;;;41.33;27.77;;;9.30;99.90;;;;;;5065133;28;20184;-61
2021/05/20 04:00:59;;;;;;;36.90;28.50;;;9.50;99.90;;;;;;5064937;28;20169;-61
2021/05/20 04:03:29;;;;;;;39.07;27.60;;;9.60;99.90;;;;;;5068826;28;20180;-60
2021/05/20 04:06:00;;;;;;;40.97;28.57;;;9.40;99.90;;;;;;5066411;28;20165;-60
2021/05/20 04:08:26;;;;;;;44.37;26.83;;;9.30;99.90;;;;;;5068818;28;20172;-60
2021/05/20 04:10:53;;;;;;;39.57;27.10;;;9.20;99.90;;;;;;5068656;28;20216;-61
2021/05/20 04:13:33;;;;;;;36.10;26.07;;;9.20;99.90;;;;;;5068319;28;20698;-60
2021/05/20 04:15:59;;;;;;;40.80;28.23;;;9.20;99.90;;;;;;5065680;28;20176;-60
2021/05/20 04:18:25;;;;;;;44.07;28.80;;;9.50;99.90;;;;;;5068805;28;20642;-60
2021/05/20 04:20:51;;;;;;;40.40;29.17;;;9.60;99.90;;;;;;5068559;28;20192;-60
2021/05/20 04:23:18;;;;;;;37.70;26.83;;;9.40;99.90;;;;;;5068338;28;20177;-60
2021/05/20 04:25:43;;;;;;;42.97;28.30;;;9.30;99.90;;;;;;5066080;28;20194;-60
2021/05/20 04:28:09;;;;;;;39.37;27.80;;;9.50;99.90;;;;;;5068336;28;20224;-61
2021/05/20 04:30:36;;;;;;;40.27;28.00;;;9.50;99.90;;;;;;5068168;28;20200;-60
2021/05/20 04:33:02;;;;;;;39.20;27.07;;;9.40;99.90;;;;;;5050056;28;20238;-60
2021/05/20 04:35:28;;;;;;;38.67;27.57;;;9.20;99.90;;;;;;5065865;28;20168;-60
2021/05/20 04:37:53;;;;;;;39.00;28.03;;;9.20;99.90;;;;;;5050372;28;20180;-60
2021/05/20 04:40:19;;;;;;;39.47;26.93;;;9.20;99.90;;;;;;5068211;28;20187;-60
2021/05/20 04:42:45;;;;;;;37.57;27.37;;;9.20;99.90;;;;;;5068010;28;20636;-60
2021/05/20 04:45:11;;;;;;;38.47;27.97;;;9.30;99.90;;;;;;5065275;28;20185;-60
2021/05/20 04:47:37;;;;;;;38.60;27.87;;;9.30;99.90;;;;;;5067478;28;20173;-61
2021/05/20 04:50:04;;;;;;;41.60;27.60;;;9.30;99.90;;;;;;5067777;28;20451;-61
2021/05/20 04:52:29;;;;;;;46.27;28.63;;;9.30;99.90;;;;;;5067909;28;20223;-60
2021/05/20 04:54:55;;;;;;;44.10;30.70;;;9.40;99.90;;;;;;5047651;28;20166;-60
2021/05/20 04:57:21;;;;;;;45.37;29.80;;;9.60;99.90;;;;;;5067829;28;20164;-60
2021/05/20 04:59:47;;;;;;;44.10;29.50;;;9.60;99.90;;;;;;5067835;28;20160;-61
2021/05/20 05:02:12;;;;;;;41.10;29.30;;;9.70;99.90;;;;;;5066814;28;20199;-60
2021/05/20 05:04:38;;;;;;;39.73;28.60;;;9.60;99.90;;;;;;5064790;28;20164;-61
2021/05/20 05:07:04;;;;;;;34.83;25.93;;;9.60;99.90;;;;;;5067233;28;20183;-61
2021/05/20 05:09:29;;;;;;;41.90;28.57;;;9.50;99.90;;;;;;5067434;28;20180;-61
2021/05/20 05:11:55;;;;;;;41.27;28.83;;;9.70;99.90;;;;;;5067110;28;20227;-60
2021/05/20 05:14:20;;;;;;;38.80;28.23;;;9.80;99.90;;;;;;5063693;28;20704;-61
2021/05/20 05:16:46;;;;;;;39.63;26.20;;;9.70;99.90;;;;;;5067157;28;20165;-60
2021/05/20 05:19:12;;;;;;;42.10;26.13;;;9.70;99.90;;;;;;5067396;28;20210;-61
2021/05/20 05:21:37;;;;;;;35.73;27.47;;;9.80;99.90;;;;;;5067534;28;20168;-60
2021/05/20 05:24:04;;;;;;;39.63;26.17;;;10.00;99.90;;;;;;5066491;28;20189;-61
2021/05/20 05:26:30;;;;;;;35.40;25.80;;;10.00;99.90;;;;;;5065590;28;20161;-61
2021/05/20 05:28:56;;;;;;;39.93;27.13;;;10.20;99.90;;;;;;5067340;28;20171;-60
2021/05/20 05:31:24;;;;;;;40.90;27.07;;;10.20;99.90;;;;;;5066639;28;20165;-60
2021/05/20 05:33:50;;;;;;;41.87;26.93;;;10.60;99.90;;;;;;5049035;28;20173;-60
2021/05/20 05:36:16;;;;;;;37.30;24.13;;;10.30;99.90;;;;;;5064622;28;20165;-60
2021/05/20 05:38:42;;;;;;;34.77;23.27;;;10.30;99.90;;;;;;5049099;28;20168;-60
2021/05/20 05:41:07;;;;;;;36.83;22.97;;;10.30;99.90;;;;;;5066742;28;20199;-60
2021/05/20 05:43:33;;;;;;;37.80;24.23;;;10.50;99.90;;;;;;5066771;28;20177;-60
2021/05/20 05:45:59;;;;;;;41.80;24.43;;;10.40;99.90;;;;;;5063933;28;20176;-60
2021/05/20 05:48:24;;;;;;;32.90;24.33;;;10.30;99.90;;;;;;5067065;28;20168;-60
2021/05/20 05:50:52;;;;;;;35.30;23.37;;;10.30;99.90;;;;;;5066858;28;20236;-60
2021/05/20 05:53:18;;;;;;;37.87;25.23;;;10.40;99.90;;;;;;5066412;28;20197;-60
2021/05/20 05:55:44;;;;;;;36.23;24.37;;;10.50;99.90;;;;;;5064225;28;20251;-60
2021/05/20 05:58:09;;;;;;;42.03;24.60;;;10.60;99.90;;;;;;5066409;28;20203;-61
2021/05/20 06:00:35;;;;;;;35.07;24.00;;;10.70;99.90;;;;;;5048663;28;20176;-62
2021/05/20 06:03:01;;;;;;;37.70;24.60;;;10.60;99.90;;;;;;5066297;28;20207;-60
2021/05/20 06:05:27;;;;;;;33.23;24.57;;;10.70;99.90;;;;;;5064121;28;20175;-60
2021/05/20 06:07:52;;;;;;;33.47;23.17;;;10.80;99.90;;;;;;5066399;28;20169;-60
2021/05/20 06:10:20;;;;;;;44.60;24.70;;;10.90;99.90;;;;;;5066125;28;20208;-61
2021/05/20 06:12:46;;;;;;;34.33;23.47;;;10.90;99.90;;;;;;5066125;28;20212;-60
2021/05/20 06:15:12;;;;;;;31.60;23.23;;;11.00;99.90;;;;;;5063629;28;20172;-61
2021/05/20 06:17:38;;;;;;;33.70;24.17;;;10.90;99.90;;;;;;5066060;28;20177;-60
2021/05/20 06:20:06;;;;;;;33.97;22.43;;;10.90;99.90;;;;;;5065764;28;20547;-60
2021/05/20 06:22:32;;;;;;;32.37;23.13;;;10.90;99.90;;;;;;5048020;28;20169;-61
2021/05/20 06:24:58;;;;;;;27.07;22.03;;;11.00;99.90;;;;;;5062980;28;20173;-60
2021/05/20 06:27:26;;;;;;;37.17;24.53;;;11.30;99.90;;;;;;5066071;28;20649;-61
2021/05/20 06:29:55;;;;;;;34.50;23.73;;;11.60;99.90;;;;;;5065851;28;20199;-60
2021/05/20 06:32:22;;;;;;;36.73;23.80;;;11.40;99.90;;;;;;5065226;28;20204;-60
2021/05/20 06:34:47;;;;;;;34.87;23.57;;;11.60;99.90;;;;;;5063093;28;20169;-61
2021/05/20 06:37:14;;;;;;;31.70;24.07;;;11.60;99.90;;;;;;5065663;28;20239;-60
2021/05/20 06:39:40;;;;;;;30.50;23.63;;;11.50;99.90;;;;;;5065872;28;20193;-60
2021/05/20 06:42:10;;;;;;;29.40;22.93;;;11.50;99.90;;;;;;5047638;28;20164;-60
2021/05/20 06:44:39;;;;;;;32.67;22.40;;;11.40;99.90;;;;;;5062991;28;20206;-61
2021/05/20 06:47:05;;;;;;;29.77;21.87;;;11.40;99.90;;;;;;5065091;28;20172;-61
2021/05/20 06:49:30;;;;;;;30.40;21.50;;;11.50;99.90;;;;;;5065642;28;20207;-61
2021/05/20 06:51:56;;;;;;;29.60;22.10;;;11.40;99.90;;;;;;5065357;28;20276;-60
2021/05/20 06:54:23;;;;;;;31.10;22.17;;;11.60;99.90;;;;;;5044909;28;20255;-62
2021/05/20 06:57:00;;;;;;;28.43;22.27;;;11.70;99.90;;;;;;5065506;28;20169;-61
2021/05/20 07:02:10;;;;;;;27.53;20.47;;;12.20;99.90;;;;;;5065127;28;20183;-60
2021/05/20 07:04:36;;;;;;;29.63;19.63;;;12.40;99.90;;;;;;5062396;28;20311;-61
2021/05/20 07:07:02;;;;;;;25.50;19.33;;;12.30;99.90;;;;;;5064994;28;20165;-61
2021/05/20 07:09:37;;;;;;;30.13;21.03;;;12.40;99.90;;;;;;5065272;28;20176;-60
2021/05/20 07:12:04;;;;;;;27.58;18.83;;;12.40;99.90;;;;;;5064777;28;20219;-60
2021/05/20 07:14:30;;;;;;;25.53;18.57;;;12.50;99.90;;;;;;5062451;28;20736;-61
2021/05/20 07:16:56;;;;;;;24.85;18.30;;;12.60;99.90;;;;;;5064950;28;20168;-60
2021/05/20 07:19:22;;;;;;;25.75;18.20;;;12.70;99.90;;;;;;5065024;28;20732;-61
2021/05/20 07:21:51;;;;;;;28.52;15.88;;;12.80;99.90;;;;;;5065122;28;20560;-61
2021/05/20 07:24:18;;;;;;;20.17;16.05;;;12.90;99.90;;;;;;5044705;28;20597;-60
2021/05/20 07:26:44;;;;;;;16.20;14.60;;;13.20;99.90;;;;;;5065130;28;20161;-61
2021/05/20 07:29:10;;;;;;;28.13;13.68;;;13.10;99.90;;;;;;5064959;28;20196;-61
2021/05/20 07:31:37;;;;;;;21.77;14.77;;;13.50;99.90;;;;;;5064755;28;20280;-61
2021/05/20 07:34:03;;;;;;;19.52;14.05;;;13.50;99.90;;;;;;5046107;28;20177;-61
2021/05/20 07:36:29;;;;;;;15.07;12.15;;;13.80;99.90;;;;;;5063431;28;20226;-60
2021/05/20 07:38:54;;;;;;;12.55;11.18;;;13.60;99.90;;;;;;5068917;28;20161;-61
2021/05/20 07:41:20;;;;;;;17.88;11.35;;;13.40;99.90;;;;;;5051171;28;20164;-60
2021/05/20 07:43:46;;;;;;;12.93;11.60;;;13.40;99.90;;;;;;5068822;28;20169;-61
2021/05/20 07:46:12;;;;;;;15.85;10.82;;;13.40;99.90;;;;;;5065951;28;20223;-61
2021/05/20 07:48:38;;;;;;;14.13;11.25;;;13.60;99.90;;;;;;5051116;28;20172;-61
2021/05/20 07:51:07;;;;;;;13.82;11.10;;;13.70;99.90;;;;;;5068351;28;20252;-61
2021/05/20 07:53:33;;;;;;;10.68;9.40;;;13.80;99.90;;;;;;5050632;28;20597;-61
2021/05/20 07:55:59;;;;;;;11.30;10.23;;;13.80;99.90;;;;;;5066044;28;20163;-61
2021/05/20 07:58:25;;;;;;;14.13;10.35;;;13.70;99.90;;;;;;5068781;28;20172;-61
2021/05/20 08:00:51;;;;;;;13.77;9.80;;;13.80;99.90;;;;;;5068383;28;20172;-60
2021/05/20 08:11:13;;;;;;;16.00;10.35;;;14.30;99.90;;;;;;5068194;28;20242;-61
2021/05/20 08:13:39;;;;;;;11.50;9.95;;;14.50;99.90;;;;;;5068231;28;20242;-60
2021/05/20 08:16:05;;;;;;;18.15;10.07;;;14.50;99.90;;;;;;5065536;28;20173;-61
2021/05/20 08:18:31;;;;;;;17.00;10.68;;;14.60;99.90;;;;;;5068409;28;20172;-60
2021/05/20 08:20:58;;;;;;;14.18;10.88;;;14.40;99.90;;;;;;5068199;28;20172;-60
2021/05/20 08:23:25;;;;;;;14.05;11.23;;;14.50;99.90;;;;;;5068219;28;20562;-61
2021/05/20 08:25:50;;;;;;;19.35;12.75;;;14.80;99.90;;;;;;5065589;28;20180;-61
2021/05/20 08:28:16;;;;;;;22.45;16.23;;;14.80;99.90;;;;;;5067981;28;20534;-61
2021/05/20 08:30:43;;;;;;;22.95;16.80;;;14.90;99.90;;;;;;5067776;28;20165;-61
2021/05/20 08:33:09;;;;;;;30.60;20.50;;;14.70;99.90;;;;;;5067626;28;20189;-61
2021/05/20 08:35:35;;;;;;;31.30;20.13;;;14.70;99.90;;;;;;5065598;28;20718;-62
2021/05/20 08:38:01;;;;;;;38.67;23.77;;;14.60;99.90;;;;;;5067112;28;20688;-60
2021/05/20 08:40:27;;;;;;;34.40;20.13;;;14.70;99.90;;;;;;5067982;28;20168;-60
2021/05/20 08:42:53;;;;;;;31.17;20.35;;;14.70;99.90;;;;;;5049997;28;20168;-60
2021/05/20 08:45:27;;;;;;;36.60;22.45;;;14.30;99.90;;;;;;5065232;28;20160;-60
2021/05/20 08:47:54;;;;;;;37.65;22.05;;;14.20;99.90;;;;;;5067633;28;20168;-60
2021/05/20 08:50:22;;;;;;;50.58;23.42;;;14.10;99.90;;;;;;5067415;28;20228;-59
2021/05/20 08:52:49;;;;;;;34.28;22.02;;;14.00;99.90;;;;;;5067319;28;20193;-60
2021/05/20 08:55:17;;;;;;;36.30;20.25;;;13.90;99.90;;;;;;5064923;28;20611;-60
2021/05/20 08:57:44;;;;;;;34.58;19.77;;;13.90;99.90;;;;;;5067351;28;20165;-60
2021/05/20 09:00:13;;;;;;;31.58;19.00;;;14.10;99.90;;;;;;5067506;28;20268;-60
2021/05/20 09:02:38;;;;;;;29.13;18.58;;;14.10;99.90;;;;;;5067091;28;20172;-60
2021/05/20 09:05:10;;;;;;;28.23;19.10;;;14.10;99.90;;;;;;5064543;28;20165;-61
2021/05/20 09:07:39;;;;;;;30.50;19.92;;;14.50;99.90;;;;;;5067435;28;20176;-61
2021/05/20 09:10:26;;;;;;;31.55;18.92;;;14.40;99.90;;;;;;5049017;28;20165;-60
2021/05/20 09:13:05;;;;;;;30.48;19.33;;;14.80;99.90;;;;;;5066914;28;20196;-61
2021/05/20 09:15:32;;;;;;;26.20;16.83;;;14.80;99.90;;;;;;5064441;28;20160;-60
2021/05/20 09:18:30;;;;;;;22.10;15.55;;;14.90;99.90;;;;;;5067064;28;20169;-61
2021/05/20 09:20:58;;;;;;;25.67;15.57;;;14.90;99.90;;;;;;5065618;28;20188;-61
2021/05/20 09:23:32;;;;;;;23.65;14.48;;;15.20;99.90;;;;;;5067314;28;20184;-61
2021/05/20 09:26:05;;;;;;;16.83;13.68;;;15.30;99.90;;;;;;5064548;28;20158;-61
2021/05/20 09:28:40;;;;;;;14.02;11.07;;;15.50;99.90;;;;;;5066989;28;20627;-60
2021/05/20 09:31:06;;;;;;;17.23;9.57;;;15.50;99.90;;;;;;5066700;28;20634;-61
2021/05/20 09:33:31;;;;;;;12.75;11.13;;;15.60;99.90;;;;;;5066167;28;20199;-61
2021/05/20 09:35:58;;;;;;;12.43;9.80;;;15.70;99.90;;;;;;5064308;28;20773;-61
2021/05/20 09:38:25;;;;;;;15.27;10.13;;;15.70;99.90;;;;;;5066894;28;20160;-61
2021/05/20 09:40:59;;;;;;;14.75;11.80;;;15.70;99.90;;;;;;5066903;28;20180;-61
2021/05/20 09:43:33;;;;;;;16.35;11.10;;;15.30;99.90;;;;;;5066702;28;20177;-61
2021/05/20 09:46:13;;;;;;;12.23;10.93;;;15.40;99.90;;;;;;5063709;28;20256;-61
2021/05/20 09:48:41;;;;;;;10.98;9.82;;;15.30;99.90;;;;;;5066702;28;20697;-61
2021/05/20 09:51:23;;;;;;;14.23;11.43;;;15.50;99.90;;;;;;5066304;28;20236;-61
2021/05/20 09:53:53;;;;;;;15.20;12.10;;;15.60;99.90;;;;;;5065826;28;20264;-61
2021/05/20 09:56:33;;;;;;;17.02;12.30;;;15.70;99.90;;;;;;5064324;28;20224;-61
2021/05/20 09:58:58;;;;;;;15.07;13.27;;;15.70;99.90;;;;;;5065588;28;20184;-61
2021/05/20 10:01:24;;;;;;;16.55;13.05;;;15.70;99.90;;;;;;5048352;28;20169;-61
2021/05/20 10:03:55;;;;;;;14.75;12.15;;;15.70;99.90;;;;;;5066526;28;20149;-61
2021/05/20 10:06:44;;;;;;;16.90;12.65;;;15.50;99.90;;;;;;5064193;28;20184;-61
2021/05/20 10:09:12;;;;;;;16.20;14.02;;;15.70;99.90;;;;;;5066164;28;20161;-61
2021/05/20 10:11:39;;;;;;;21.67;14.25;;;15.90;99.90;;;;;;5066319;28;20242;-61
2021/05/20 10:14:06;;;;;;;22.35;15.32;;;15.90;99.90;;;;;;5065451;28;20169;-61
2021/05/20 10:16:33;;;;;;;16.90;13.45;;;15.80;99.90;;;;;;5046699;28;20267;-60
2021/05/20 10:18:59;;;;;;;14.82;13.30;;;15.60;99.90;;;;;;5065951;28;20244;-60
2021/05/20 10:21:26;;;;;;;15.75;13.93;;;15.20;99.90;;;;;;5066303;28;20168;-61
2021/05/20 10:23:53;;;;;;;18.63;14.48;;;15.10;99.90;;;;;;5065935;28;20247;-61
2021/05/20 10:26:19;;;;;;;16.55;13.15;;;15.00;99.90;;;;;;5064340;28;20160;-61
2021/05/20 10:28:45;;;;;;;16.48;13.85;;;15.20;99.90;;;;;;5066163;28;20160;-61
2021/05/20 10:31:12;;;;;;;14.15;12.57;;;15.40;99.90;;;;;;5065666;28;20184;-61
2021/05/20 10:33:38;;;;;;;15.90;13.65;;;15.20;99.90;;;;;;5047702;28;20200;-61
2021/05/20 10:36:05;;;;;;;14.77;13.27;;;15.20;99.90;;;;;;5063574;28;20165;-61
2021/05/20 10:38:33;;;;;;;15.75;12.25;;;15.30;99.90;;;;;;5065906;28;20160;-61
2021/05/20 10:41:29;;;;;;;14.13;12.60;;;15.40;99.90;;;;;;5065797;28;20244;-61
2021/05/20 10:44:03;;;;;;;13.30;12.07;;;15.50;99.90;;;;;;5062942;28;20184;-61
2021/05/20 10:46:29;;;;;;;12.55;10.88;;;15.50;99.90;;;;;;5064166;28;20187;-60
2021/05/20 10:48:57;;;;;;;14.70;10.98;;;15.60;99.90;;;;;;5065811;28;20224;-60
2021/05/20 10:51:27;;;;;;;12.05;10.95;;;15.70;99.90;;;;;;5047646;28;20164;-61
2021/05/20 10:54:06;;;;;;;11.10;9.90;;;15.30;99.90;;;;;;5065264;28;20189;-61
2021/05/20 10:56:32;;;;;;;11.35;10.27;;;15.30;99.90;;;;;;5064275;28;20164;-61
2021/05/20 10:58:59;;;;;;;15.63;10.45;;;15.50;99.90;;;;;;5065276;28;20156;-61
2021/05/20 11:01:25;;;;;;;10.93;9.82;;;15.50;99.90;;;;;;5065001;28;20176;-61
2021/05/20 11:03:52;;;;;;;13.00;10.27;;;15.70;99.90;;;;;;5064851;28;20170;-61
2021/05/20 11:06:20;;;;;;;10.63;9.70;;;15.90;99.90;;;;;;5062672;28;20252;-61
2021/05/20 11:08:46;;;;;;;10.05;9.20;;;16.00;99.90;;;;;;5065258;28;20160;-61
2021/05/20 11:11:22;;;;;;;9.07;8.38;;;16.10;99.90;;;;;;5064863;28;20211;-61
2021/05/20 11:13:48;;;;;;;9.15;8.23;;;16.20;99.90;;;;;;5064947;28;20656;-61
2021/05/20 11:16:16;;;;;;;8.65;7.95;;;16.30;99.90;;;;;;5062244;28;20192;-61
2021/05/20 11:18:44;;;;;;;8.57;7.80;;;16.40;99.90;;;;;;5065271;28;20618;-61
2021/05/20 11:21:10;;;;;;;8.63;7.47;;;16.30;99.90;;;;;;5064858;28;20157;-60
2021/05/20 11:23:37;;;;;;;8.25;6.90;;;16.40;99.90;;;;;;5046962;28;20194;-61
2021/05/20 11:26:18;;;;;;;7.82;7.13;;;16.20;99.90;;;;;;5062258;28;20161;-61
2021/05/20 11:28:50;;;;;;;7.40;6.28;;;16.40;99.90;;;;;;5065150;28;20184;-61
2021/05/20 11:31:17;;;;;;;8.65;6.63;;;16.40;99.90;;;;;;5064771;28;20230;-61
2021/05/20 11:36:12;;;;;;;9.45;6.28;;;16.50;99.90;;;;;;5062475;28;20169;-61
2021/05/20 11:38:50;;;;;;;7.68;6.97;;;16.20;99.90;;;;;;5064947;28;20157;-62
2021/05/20 11:41:17;;;;;;;7.43;6.72;;;16.30;99.90;;;;;;5064777;28;20157;-61
2021/05/20 11:43:42;;;;;;;6.75;5.97;;;16.40;99.90;;;;;;5064704;28;20161;-61
2021/05/20 11:46:28;;;;;;;6.57;6.07;;;16.50;99.90;;;;;;5044003;28;20184;-61
2021/05/20 11:48:59;;;;;;;5.88;5.38;;;16.80;99.90;;;;;;5064659;28;20185;-61
2021/05/20 11:51:42;;;;;;;8.18;5.22;;;16.70;99.90;;;;;;5064990;28;20623;-61
2021/05/20 11:54:12;;;;;;;14.40;5.35;;;16.30;99.90;;;;;;5045830;28;20177;-61
2021/05/20 11:56:51;;;;;;;7.25;5.57;;;16.20;99.90;;;;;;5064493;28;20157;-60
2021/05/20 11:59:40;;;;;;;5.80;5.18;;;16.40;99.90;;;;;;5064674;28;20173;-60
2021/05/20 12:02:30;;;;;;;6.97;5.43;;;16.20;99.90;;;;;;5064062;28;20252;-61
2021/05/20 12:05:06;;;;;;;5.95;5.10;;;16.40;99.90;;;;;;5062265;28;20165;-61
2021/05/20 12:07:32;;;;;;;6.28;5.40;;;16.40;99.90;;;;;;5064359;28;20184;-61
2021/05/20 12:10:24;;;;;;;5.88;4.80;;;16.50;99.90;;;;;;5064591;28;20224;-61
2021/05/20 12:12:57;;;;;;;6.22;4.97;;;16.30;99.90;;;;;;5064452;28;20223;-61
2021/05/20 12:15:27;;;;;;;5.63;4.70;;;16.60;99.90;;;;;;5062739;28;20157;-60
2021/05/20 12:17:56;;;;;;;4.72;4.32;;;16.50;99.90;;;;;;5046495;28;20314;-60
2021/05/20 12:20:23;;;;;;;5.07;4.40;;;16.50;99.90;;;;;;5064168;28;20168;-61
2021/05/20 12:22:51;;;;;;;7.43;4.70;;;16.40;99.90;;;;;;5065880;28;20171;-60
2021/05/20 12:25:19;;;;;;;6.18;4.35;;;16.30;99.90;;;;;;5065538;28;20179;-61
2021/05/20 12:27:48;;;;;;;4.90;4.40;;;16.40;99.90;;;;;;5067140;28;20251;-60
2021/05/20 12:30:20;;;;;;;6.15;4.20;;;16.40;99.90;;;;;;5067182;28;20176;-61
2021/05/20 12:32:47;;;;;;;4.88;4.18;;;16.40;99.90;;;;;;5067471;28;20188;-61
2021/05/20 12:35:13;;;;;;;5.03;3.92;;;16.50;99.90;;;;;;5065597;28;20231;-60
2021/05/20 12:38:01;;;;;;;5.07;4.57;;;16.40;99.90;;;;;;5067375;28;20165;-61
2021/05/20 12:40:39;;;;;;;4.07;3.08;;;16.80;99.90;;;;;;5050308;28;20218;-61
2021/05/20 12:43:05;;;;;;;5.40;3.40;;;16.90;99.90;;;;;;5067684;28;20530;-61
2021/05/20 12:45:34;;;;;;;2.95;2.75;;;16.90;99.90;;;;;;5065299;28;20164;-61
2021/05/20 12:48:00;;;;;;;3.42;2.70;;;17.00;99.90;;;;;;5067439;28;20255;-61